createdAt,value
2023-05-17T00:01:59.481Z,6.73
2023-05-17T00:04:26.264Z,7.77
2023-05-17T00:06:52.949Z,7.13
2023-05-17T00:09:19.729Z,4.67
2023-05-17T00:11:46.519Z,5.20
2023-05-17T00:14:13.707Z,5.83
2023-05-17T00:16:40.550Z,4.27
2023-05-17T00:19:07.432Z,8.97
2023-05-17T00:21:34.697Z,9.50
2023-05-17T00:24:01.467Z,4.90
2023-05-17T00:26:28.394Z,7.07
2023-05-17T00:28:55.122Z,8.43
2023-05-17T00:31:21.831Z,4.97
2023-05-17T00:33:48.542Z,7.23
2023-05-17T00:36:15.390Z,5.60
2023-05-17T00:38:42.277Z,6.07
2023-05-17T00:41:08.990Z,6.20
2023-05-17T00:43:35.810Z,5.90
2023-05-17T00:46:02.522Z,5.70
2023-05-17T00:48:29.683Z,6.30
2023-05-17T00:50:56.970Z,5.77
2023-05-17T00:53:23.916Z,6.60
2023-05-17T00:55:50.995Z,6.03
2023-05-17T00:58:17.777Z,4.40
2023-05-17T01:00:44.871Z,7.40
2023-05-17T01:03:11.795Z,5.10
2023-05-17T01:05:38.858Z,7.47
2023-05-17T01:08:05.937Z,5.70
2023-05-17T01:10:35.754Z,8.20
2023-05-17T01:13:24.288Z,5.00
2023-05-17T01:16:02.880Z,6.23
2023-05-17T01:18:45.205Z,9.27
2023-05-17T01:21:23.154Z,7.83
2023-05-17T01:24:04.146Z,7.30
2023-05-17T01:26:40.254Z,6.13
2023-05-17T01:29:09.349Z,7.23
2023-05-17T01:31:37.087Z,9.60
2023-05-17T01:34:10.655Z,8.07
2023-05-17T01:36:37.592Z,9.93
2023-05-17T01:39:04.385Z,10.23
2023-05-17T01:41:38.177Z,7.63
2023-05-17T01:44:28.917Z,9.43
2023-05-17T01:47:01.169Z,7.40
2023-05-17T01:49:32.687Z,6.67
2023-05-17T01:52:17.988Z,8.10
2023-05-17T01:55:02.029Z,7.37
2023-05-17T01:57:30.172Z,9.63
2023-05-17T02:00:00.321Z,7.97
2023-05-17T02:02:27.145Z,8.30
2023-05-17T02:04:55.044Z,9.07
2023-05-17T02:07:21.856Z,8.00
2023-05-17T02:09:48.536Z,8.97
2023-05-17T02:12:15.277Z,10.03
2023-05-17T02:14:42.093Z,11.43
2023-05-17T02:17:09.075Z,10.80
2023-05-17T02:19:35.990Z,10.30
2023-05-17T02:22:02.833Z,8.93
2023-05-17T02:24:29.575Z,7.60
2023-05-17T02:26:56.366Z,7.80
2023-05-17T02:29:23.092Z,9.20
2023-05-17T02:31:49.887Z,10.53
2023-05-17T02:34:16.652Z,7.67
2023-05-17T02:36:44.750Z,8.40
2023-05-17T02:39:11.480Z,6.20
2023-05-17T02:41:38.250Z,7.70
2023-05-17T02:44:05.628Z,8.17
2023-05-17T02:46:32.472Z,6.93
2023-05-17T02:48:59.257Z,5.47
2023-05-17T02:51:26.069Z,8.97
2023-05-17T02:53:52.909Z,9.77
2023-05-17T02:56:19.655Z,8.43
2023-05-17T02:58:46.457Z,8.33
2023-05-17T03:01:13.151Z,7.93
2023-05-17T03:03:40.109Z,7.00
2023-05-17T03:06:07.198Z,12.70
2023-05-17T03:08:33.958Z,8.43
2023-05-17T03:11:00.964Z,6.10
2023-05-17T03:13:27.705Z,8.43
2023-05-17T03:15:54.425Z,8.73
2023-05-17T03:18:21.213Z,11.13
2023-05-17T03:20:47.975Z,9.63
2023-05-17T03:23:14.790Z,7.80
2023-05-17T03:25:41.517Z,9.17
2023-05-17T03:28:08.252Z,6.77
2023-05-17T03:30:35.067Z,7.97
2023-05-17T03:33:01.884Z,7.07
2023-05-17T03:35:28.943Z,10.37
2023-05-17T03:37:55.907Z,7.63
2023-05-17T03:40:22.912Z,9.20
2023-05-17T03:42:49.685Z,10.87
2023-05-17T03:45:16.858Z,10.50
2023-05-17T03:47:43.687Z,8.77
2023-05-17T03:50:10.829Z,10.33
2023-05-17T03:52:37.556Z,10.80
2023-05-17T03:55:04.619Z,10.83
2023-05-17T03:57:31.384Z,14.00
2023-05-17T03:59:58.265Z,12.47
2023-05-17T04:02:25.165Z,9.30
2023-05-17T04:04:53.357Z,8.73
2023-05-17T04:07:20.243Z,12.00
2023-05-17T04:09:47.412Z,8.07
2023-05-17T04:12:14.194Z,16.60
2023-05-17T04:14:41.516Z,18.63
2023-05-17T04:17:11.038Z,21.83
2023-05-17T04:19:37.796Z,15.57
2023-05-17T04:22:04.670Z,15.97
2023-05-17T04:24:31.579Z,12.80
2023-05-17T04:27:01.355Z,14.37
2023-05-17T04:29:29.496Z,14.07
2023-05-17T04:31:56.349Z,11.43
2023-05-17T04:34:24.189Z,15.37
2023-05-17T04:36:51.198Z,9.80
2023-05-17T04:39:18.398Z,9.97
2023-05-17T04:41:45.134Z,12.03
2023-05-17T04:44:11.934Z,9.33
2023-05-17T04:46:38.645Z,16.47
2023-05-17T04:49:05.415Z,17.53
2023-05-17T04:51:32.267Z,11.77
2023-05-17T04:54:01.304Z,13.97
2023-05-17T04:56:29.762Z,12.60
2023-05-17T04:58:56.675Z,12.93
2023-05-17T05:01:31.157Z,11.33
2023-05-17T05:03:59.000Z,14.87
2023-05-17T05:06:25.962Z,19.57
2023-05-17T05:08:52.944Z,18.80
2023-05-17T05:11:19.686Z,14.57
2023-05-17T05:13:46.681Z,15.80
2023-05-17T05:16:13.545Z,18.23
2023-05-17T05:18:40.418Z,17.57
2023-05-17T05:21:07.359Z,21.03
2023-05-17T05:23:34.065Z,16.03
2023-05-17T05:26:06.016Z,11.37
2023-05-17T05:28:32.840Z,15.03
2023-05-17T05:31:00.682Z,14.77
2023-05-17T05:33:27.678Z,15.50
2023-05-17T05:35:54.630Z,19.90
2023-05-17T05:38:21.439Z,15.77
2023-05-17T05:40:48.490Z,9.73
2023-05-17T05:43:15.980Z,8.87
2023-05-17T05:45:46.223Z,8.80
2023-05-17T05:48:14.110Z,12.53
2023-05-17T05:50:44.576Z,8.37
2023-05-17T05:53:19.032Z,11.03
2023-05-17T05:55:46.748Z,7.60
2023-05-17T05:58:13.525Z,6.93
2023-05-17T06:00:40.285Z,8.97
2023-05-17T06:03:07.085Z,7.37
2023-05-17T06:05:34.064Z,9.67
2023-05-17T06:08:01.046Z,9.80
2023-05-17T06:10:28.128Z,10.47
2023-05-17T06:12:55.062Z,8.10
2023-05-17T06:15:21.806Z,12.50
2023-05-17T06:17:48.570Z,7.60
2023-05-17T06:20:16.864Z,8.20
2023-05-17T06:22:44.061Z,7.63
2023-05-17T06:25:11.643Z,9.37
2023-05-17T06:27:38.512Z,10.20
2023-05-17T06:30:11.070Z,11.07
2023-05-17T06:32:42.947Z,5.67
2023-05-17T06:35:10.403Z,9.57
2023-05-17T06:37:37.121Z,6.17
2023-05-17T06:40:14.918Z,8.97
2023-05-17T06:42:42.696Z,10.77
2023-05-17T06:45:10.174Z,5.37
2023-05-17T06:47:37.202Z,8.93
2023-05-17T06:50:04.441Z,7.20
2023-05-17T06:52:31.270Z,7.07
2023-05-17T06:54:58.078Z,7.37
2023-05-17T06:57:27.312Z,10.33
2023-05-17T06:59:54.063Z,6.27
2023-05-17T07:02:20.840Z,7.60
2023-05-17T07:04:47.668Z,8.93
2023-05-17T07:07:14.462Z,9.10
2023-05-17T07:09:41.600Z,10.33
2023-05-17T07:12:08.446Z,5.60
2023-05-17T07:14:35.189Z,10.97
2023-05-17T07:17:01.890Z,8.90
2023-05-17T07:19:28.856Z,9.13
2023-05-17T07:21:55.755Z,7.50
2023-05-17T07:24:22.519Z,8.20
2023-05-17T07:26:51.503Z,7.67
2023-05-17T07:29:19.044Z,9.40
2023-05-17T07:31:45.908Z,7.10
2023-05-17T07:34:13.795Z,7.20
2023-05-17T07:36:41.030Z,7.63
2023-05-17T07:39:08.979Z,9.87
2023-05-17T07:41:36.666Z,7.00
2023-05-17T07:44:03.428Z,6.30
2023-05-17T07:46:30.239Z,4.40
2023-05-17T07:48:58.804Z,5.27
2023-05-17T07:51:25.852Z,6.53
2023-05-17T07:53:54.027Z,8.40
2023-05-17T07:56:20.824Z,11.53
2023-05-17T07:58:51.217Z,9.23
2023-05-17T08:01:18.252Z,6.33
2023-05-17T08:03:48.457Z,8.07
2023-05-17T08:06:16.347Z,8.20
2023-05-17T08:08:43.474Z,8.33
2023-05-17T08:11:11.353Z,6.67
2023-05-17T08:13:38.628Z,6.10
2023-05-17T08:16:13.612Z,6.27
2023-05-17T08:18:45.657Z,8.40
2023-05-17T08:21:12.564Z,7.97
2023-05-17T08:23:42.121Z,9.53
2023-05-17T08:26:08.906Z,5.23
2023-05-17T08:28:35.844Z,12.67
2023-05-17T08:31:04.340Z,8.60
2023-05-17T08:33:31.362Z,7.67
2023-05-17T08:35:59.423Z,5.67
2023-05-17T08:38:26.348Z,8.33
2023-05-17T08:40:56.887Z,5.40
2023-05-17T08:43:26.827Z,8.03
2023-05-17T08:45:54.778Z,12.60
2023-05-17T08:48:22.078Z,6.77
2023-05-17T08:50:51.124Z,8.20
2023-05-17T08:53:21.352Z,7.63
2023-05-17T08:56:08.051Z,9.33
2023-05-17T08:58:52.307Z,7.30
2023-05-17T09:01:25.920Z,4.83
2023-05-17T09:03:54.627Z,7.27
2023-05-17T09:06:22.917Z,13.83
2023-05-17T09:08:57.559Z,9.37
2023-05-17T09:11:33.191Z,9.67
2023-05-17T09:14:02.152Z,6.67
2023-05-17T09:16:30.331Z,6.13
2023-05-17T09:18:58.166Z,6.97
2023-05-17T09:21:25.953Z,4.77
2023-05-17T09:24:05.363Z,8.83
2023-05-17T09:26:43.997Z,4.13
2023-05-17T09:29:16.561Z,3.07
2023-05-17T09:31:45.304Z,6.07
2023-05-17T09:34:12.346Z,7.67
2023-05-17T09:36:43.030Z,4.50
2023-05-17T09:39:13.650Z,5.80
2023-05-17T09:41:47.157Z,8.63
2023-05-17T09:44:15.082Z,5.93
2023-05-17T09:46:45.107Z,4.53
2023-05-17T09:49:12.840Z,4.60
2023-05-17T09:51:44.525Z,6.73
2023-05-17T09:54:13.589Z,5.60
2023-05-17T09:56:40.480Z,4.23
2023-05-17T09:59:15.005Z,6.47
2023-05-17T10:01:45.458Z,7.03
2023-05-17T10:04:13.521Z,6.10
2023-05-17T10:09:14.229Z,7.27
2023-05-17T10:11:44.262Z,9.27
2023-05-17T10:14:32.279Z,7.07
2023-05-17T10:16:59.154Z,5.30
2023-05-17T10:19:31.018Z,5.53
2023-05-17T10:22:08.288Z,8.37
2023-05-17T10:24:46.849Z,5.90
2023-05-17T10:27:13.779Z,8.93
2023-05-17T10:29:42.437Z,8.23
2023-05-17T10:32:11.996Z,7.87
2023-05-17T10:34:39.772Z,5.47
2023-05-17T10:37:09.371Z,5.53
2023-05-17T10:39:39.030Z,9.30
2023-05-17T10:44:48.263Z,7.87
2023-05-17T10:47:15.703Z,3.87
2023-05-17T10:49:48.060Z,7.50
2023-05-17T10:52:19.523Z,6.43
2023-05-17T10:54:49.604Z,8.07
2023-05-17T10:57:50.003Z,4.70
2023-05-17T11:00:22.213Z,3.17
2023-05-17T11:02:51.019Z,6.47
2023-05-17T11:05:25.464Z,2.80
2023-05-17T11:07:58.072Z,7.10
2023-05-17T11:10:24.902Z,5.47
2023-05-17T11:12:57.971Z,11.73
2023-05-17T11:15:28.260Z,6.70
2023-05-17T11:18:01.699Z,5.43
2023-05-17T11:20:28.629Z,6.47
2023-05-17T11:23:05.055Z,4.67
2023-05-17T11:25:36.059Z,6.73
2023-05-17T11:28:18.044Z,6.63
2023-05-17T11:30:51.788Z,4.43
2023-05-17T11:33:33.107Z,4.03
2023-05-17T11:36:05.675Z,5.83
2023-05-17T11:38:37.399Z,5.93
2023-05-17T11:41:26.485Z,5.83
2023-05-17T11:43:54.642Z,6.80
2023-05-17T11:46:24.326Z,7.07
2023-05-17T11:48:52.909Z,4.53
2023-05-17T11:51:22.001Z,5.83
2023-05-17T11:53:56.805Z,3.60
2023-05-17T11:56:35.474Z,4.17
2023-05-17T11:59:10.412Z,4.90
2023-05-17T12:01:46.436Z,4.43
2023-05-17T12:04:13.692Z,8.77
2023-05-17T12:06:40.854Z,5.40
2023-05-17T12:09:11.211Z,3.60
2023-05-17T12:11:39.759Z,4.33
2023-05-17T12:14:06.857Z,7.90
2023-05-17T12:16:35.464Z,8.43
2023-05-17T12:19:02.473Z,5.23
2023-05-17T12:21:29.284Z,4.50
2023-05-17T12:23:56.051Z,7.80
2023-05-17T12:26:23.595Z,7.17
2023-05-17T12:28:58.705Z,3.97
2023-05-17T12:31:37.082Z,5.63
2023-05-17T12:34:06.792Z,4.97
2023-05-17T12:36:33.910Z,6.33
2023-05-17T12:39:01.995Z,3.20
2023-05-17T12:41:30.021Z,6.20
2023-05-17T12:44:06.347Z,6.53
2023-05-17T12:46:40.315Z,5.40
2023-05-17T12:49:08.749Z,5.27
2023-05-17T12:51:50.889Z,7.07
2023-05-17T12:54:28.493Z,4.83
2023-05-17T12:57:12.135Z,6.43
2023-05-17T12:59:49.837Z,4.27
2023-05-17T13:02:17.544Z,4.80
2023-05-17T13:04:44.506Z,6.30
2023-05-17T13:07:11.270Z,4.67
2023-05-17T13:09:48.386Z,6.53
2023-05-17T13:12:21.319Z,6.67
2023-05-17T13:14:51.957Z,4.70
2023-05-17T13:17:27.543Z,3.87
2023-05-17T13:19:57.995Z,3.57
2023-05-17T13:22:25.491Z,6.03
2023-05-17T13:24:52.636Z,5.67
2023-05-17T13:27:19.591Z,3.73
2023-05-17T13:29:46.536Z,4.80
2023-05-17T13:32:14.016Z,4.90
2023-05-17T13:34:41.508Z,4.20
2023-05-17T13:37:11.456Z,4.43
2023-05-17T13:39:39.134Z,4.03
2023-05-17T13:42:06.104Z,4.60
2023-05-17T13:44:33.237Z,3.03
2023-05-17T13:47:00.042Z,4.40
2023-05-17T13:49:28.522Z,6.17
2023-05-17T13:51:55.309Z,5.53
2023-05-17T13:54:24.925Z,3.87
2023-05-17T13:56:53.942Z,3.70
2023-05-17T13:59:20.712Z,3.33
2023-05-17T14:01:47.573Z,4.27
2023-05-17T14:04:14.408Z,4.67
2023-05-17T14:06:42.235Z,5.17
2023-05-17T14:09:09.356Z,5.63
2023-05-17T14:11:36.226Z,4.63
2023-05-17T14:14:04.418Z,4.17
2023-05-17T14:16:31.427Z,5.67
2023-05-17T14:19:03.550Z,5.33
2023-05-17T14:21:31.741Z,5.03
2023-05-17T14:23:58.512Z,9.03
2023-05-17T14:26:26.494Z,4.93
2023-05-17T14:28:53.865Z,6.40
2023-05-17T14:31:20.708Z,4.50
2023-05-17T14:33:47.615Z,5.00
2023-05-17T14:36:17.980Z,3.97
2023-05-17T14:38:49.864Z,6.93
2023-05-17T14:41:18.768Z,3.17
2023-05-17T14:43:45.915Z,7.83
2023-05-17T14:46:12.673Z,8.23
2023-05-17T14:48:39.508Z,11.10
2023-05-17T14:51:06.416Z,9.00
2023-05-17T14:53:33.195Z,5.47
2023-05-17T14:55:59.966Z,6.43
2023-05-17T14:58:32.034Z,8.13
2023-05-17T15:01:05.344Z,5.13
2023-05-17T15:03:33.946Z,6.30
2023-05-17T15:06:03.271Z,5.97
2023-05-17T15:08:32.251Z,5.50
2023-05-17T15:10:59.116Z,6.47
2023-05-17T15:13:26.072Z,6.00
2023-05-17T15:15:53.211Z,7.60
2023-05-17T15:18:20.707Z,5.40
2023-05-17T15:20:47.464Z,8.27
2023-05-17T15:23:14.227Z,10.17
2023-05-17T15:25:41.323Z,5.53
2023-05-17T15:28:08.184Z,8.07
2023-05-17T15:30:34.928Z,5.67
2023-05-17T15:33:01.774Z,7.60
2023-05-17T15:35:29.292Z,4.80
2023-05-17T15:37:58.117Z,9.30
2023-05-17T15:40:25.175Z,6.20
2023-05-17T15:42:53.979Z,7.17
2023-05-17T15:45:21.663Z,5.67
2023-05-17T15:47:53.768Z,5.67
2023-05-17T15:50:20.596Z,7.07
2023-05-17T15:52:48.997Z,5.23
2023-05-17T15:55:15.924Z,6.47
2023-05-17T15:57:42.951Z,5.87
2023-05-17T16:00:10.517Z,4.53
2023-05-17T16:02:37.363Z,6.87
2023-05-17T16:05:04.579Z,4.40
2023-05-17T16:07:31.574Z,4.07
2023-05-17T16:09:58.326Z,4.03
2023-05-17T16:12:25.113Z,5.43
2023-05-17T16:14:52.213Z,6.43
2023-05-17T16:17:19.248Z,4.77
2023-05-17T16:19:46.193Z,8.07
2023-05-17T16:22:16.676Z,8.43
2023-05-17T16:24:43.710Z,5.90
2023-05-17T16:27:10.510Z,6.47
2023-05-17T16:29:40.459Z,5.70
2023-05-17T16:32:08.499Z,5.80
2023-05-17T16:34:35.440Z,5.20
2023-05-17T16:37:02.682Z,6.20
2023-05-17T16:39:29.505Z,8.10
2023-05-17T16:41:56.367Z,3.43
2023-05-17T16:44:23.159Z,6.43
2023-05-17T16:46:50.540Z,9.17
2023-05-17T16:49:17.439Z,7.73
2023-05-17T16:51:45.616Z,6.73
2023-05-17T16:54:12.475Z,4.93
2023-05-17T16:56:39.531Z,4.57
2023-05-17T16:59:06.336Z,7.33
2023-05-17T17:01:33.335Z,4.77
2023-05-17T17:04:00.305Z,5.13
2023-05-17T17:06:27.258Z,7.70
2023-05-17T17:08:54.110Z,6.23
2023-05-17T17:11:23.771Z,4.50
2023-05-17T17:13:50.638Z,6.50
2023-05-17T17:16:17.814Z,7.63
2023-05-17T17:18:46.771Z,7.57
2023-05-17T17:21:14.081Z,7.33
2023-05-17T17:23:44.559Z,8.73
2023-05-17T17:26:14.230Z,7.37
2023-05-17T17:28:41.159Z,13.43
2023-05-17T17:31:07.969Z,10.17
2023-05-17T17:33:35.936Z,10.87
2023-05-17T17:36:03.319Z,8.30
2023-05-17T17:38:30.947Z,13.77
2023-05-17T17:40:57.715Z,12.03
2023-05-17T17:43:25.740Z,13.00
2023-05-17T17:45:57.563Z,10.03
2023-05-17T17:48:25.737Z,12.87
2023-05-17T17:50:52.524Z,12.47
2023-05-17T17:53:19.335Z,9.47
2023-05-17T17:55:46.161Z,7.73
2023-05-17T17:58:15.738Z,8.03
2023-05-17T18:00:43.347Z,10.40
2023-05-17T18:03:10.242Z,11.73
2023-05-17T18:05:37.009Z,7.37
2023-05-17T18:08:04.080Z,7.93
2023-05-17T18:10:31.818Z,8.50
2023-05-17T18:12:59.075Z,7.47
2023-05-17T18:15:26.125Z,5.70
2023-05-17T18:17:54.948Z,7.83
2023-05-17T18:20:31.879Z,8.07
2023-05-17T18:22:58.718Z,6.40
2023-05-17T18:25:25.450Z,7.67
2023-05-17T18:27:52.237Z,5.90
2023-05-17T18:30:19.286Z,8.40
2023-05-17T18:32:46.416Z,7.90
2023-05-17T18:35:13.383Z,5.67
2023-05-17T18:37:40.151Z,5.83
2023-05-17T18:40:10.447Z,7.33
2023-05-17T18:42:37.231Z,4.77
2023-05-17T18:45:04.681Z,5.40
2023-05-17T18:47:31.481Z,7.67
2023-05-17T18:49:58.322Z,5.47
2023-05-17T18:52:25.115Z,8.73
2023-05-17T18:55:13.941Z,6.27
2023-05-17T18:57:42.539Z,7.53
2023-05-17T19:00:10.029Z,6.97
2023-05-17T19:02:36.979Z,6.00
2023-05-17T19:05:04.234Z,3.90
2023-05-17T19:07:31.021Z,5.90
2023-05-17T19:09:57.866Z,4.63
2023-05-17T19:12:24.726Z,5.20
2023-05-17T19:14:51.524Z,5.20
2023-05-17T19:17:18.451Z,5.73
2023-05-17T19:19:46.495Z,6.30
2023-05-17T19:22:14.564Z,5.17
2023-05-17T19:24:41.505Z,6.43
2023-05-17T19:27:08.335Z,6.37
2023-05-17T19:29:35.223Z,5.33
2023-05-17T19:32:02.088Z,5.33
2023-05-17T19:34:28.823Z,6.33
2023-05-17T19:36:55.906Z,7.20
2023-05-17T19:39:22.726Z,10.77
2023-05-17T19:41:49.622Z,4.23
2023-05-17T19:44:16.513Z,4.97
2023-05-17T19:46:43.504Z,5.60
2023-05-17T19:49:11.776Z,6.60
2023-05-17T19:51:38.762Z,5.97
2023-05-17T19:54:05.696Z,4.63
2023-05-17T19:56:32.462Z,6.13
2023-05-17T19:58:59.251Z,4.43
2023-05-17T20:01:26.149Z,4.90
2023-05-17T20:03:53.070Z,7.17
2023-05-17T20:06:19.960Z,5.80
2023-05-17T20:08:47.234Z,8.33
2023-05-17T20:11:14.114Z,6.30
2023-05-17T20:13:41.088Z,5.07
2023-05-17T20:16:14.880Z,6.73
2023-05-17T20:18:43.540Z,3.67
2023-05-17T20:21:20.573Z,5.03
2023-05-17T20:23:47.523Z,7.20
2023-05-17T20:26:18.160Z,8.87
2023-05-17T20:28:45.773Z,5.90
2023-05-17T20:31:12.886Z,7.27
2023-05-17T20:33:39.650Z,6.40
2023-05-17T20:36:06.540Z,4.63
2023-05-17T20:38:33.287Z,3.93
2023-05-17T20:41:00.902Z,6.67
2023-05-17T20:43:29.135Z,6.33
2023-05-17T20:45:56.080Z,7.03
2023-05-17T20:48:22.901Z,6.30
2023-05-17T20:50:49.739Z,3.77
2023-05-17T20:53:16.679Z,7.03
2023-05-17T20:55:44.629Z,3.60
2023-05-17T20:58:11.575Z,3.97
2023-05-17T21:00:38.573Z,5.13
2023-05-17T21:03:05.370Z,6.07
2023-05-17T21:05:36.255Z,3.83
2023-05-17T21:08:03.236Z,4.43
2023-05-17T21:10:30.345Z,4.00
2023-05-17T21:12:57.600Z,5.43
2023-05-17T21:15:25.438Z,6.47
2023-05-17T21:17:52.236Z,3.53
2023-05-17T21:20:19.704Z,4.77
2023-05-17T21:22:47.699Z,5.73
2023-05-17T21:25:14.500Z,5.30
2023-05-17T21:27:41.241Z,5.17
2023-05-17T21:30:08.503Z,4.47
2023-05-17T21:32:35.309Z,4.03
2023-05-17T21:35:02.202Z,7.40
2023-05-17T21:37:28.986Z,6.03
2023-05-17T21:39:55.746Z,5.10
2023-05-17T21:42:22.660Z,6.47
2023-05-17T21:44:49.434Z,5.27
2023-05-17T21:47:19.518Z,4.97
2023-05-17T21:49:46.338Z,6.80
2023-05-17T21:52:13.275Z,3.90
2023-05-17T21:54:49.404Z,6.97
2023-05-17T21:57:16.234Z,4.20
2023-05-17T21:59:42.964Z,5.13
2023-05-17T22:02:09.749Z,4.27
2023-05-17T22:04:38.387Z,5.10
2023-05-17T22:07:05.830Z,4.67
2023-05-17T22:09:33.246Z,6.13
2023-05-17T22:12:01.068Z,6.53
2023-05-17T22:14:33.407Z,6.87
2023-05-17T22:17:00.539Z,3.97
2023-05-17T22:19:27.524Z,5.80
2023-05-17T22:21:54.378Z,6.47
2023-05-17T22:24:21.303Z,4.47
2023-05-17T22:26:48.126Z,6.30
2023-05-17T22:29:15.757Z,6.73
2023-05-17T22:31:42.543Z,6.70
2023-05-17T22:34:09.331Z,5.63
2023-05-17T22:36:36.081Z,9.93
2023-05-17T22:39:02.893Z,4.47
2023-05-17T22:41:29.654Z,6.57
2023-05-17T22:43:56.435Z,4.00
2023-05-17T22:46:23.230Z,5.73
2023-05-17T22:48:50.304Z,7.37
2023-05-17T22:51:18.768Z,6.00
2023-05-17T22:53:45.636Z,4.57
2023-05-17T22:56:12.505Z,6.43
2023-05-17T22:58:39.281Z,5.97
2023-05-17T23:01:06.112Z,9.57
2023-05-17T23:03:33.040Z,6.80
2023-05-17T23:06:03.312Z,5.17
2023-05-17T23:08:30.494Z,3.07
2023-05-17T23:10:58.607Z,5.13
2023-05-17T23:13:26.372Z,4.83
2023-05-17T23:15:53.826Z,3.73
2023-05-17T23:18:20.756Z,7.43
2023-05-17T23:20:49.158Z,5.10
2023-05-17T23:23:16.235Z,4.67
2023-05-17T23:25:44.966Z,7.93
2023-05-17T23:28:11.808Z,2.93
2023-05-17T23:30:39.515Z,3.37
2023-05-17T23:33:06.290Z,4.80
2023-05-17T23:35:33.033Z,4.73
2023-05-17T23:38:00.126Z,4.40
2023-05-17T23:40:26.888Z,6.47
2023-05-17T23:42:53.775Z,4.63
2023-05-17T23:45:21.216Z,4.27
2023-05-17T23:47:48.005Z,3.00
2023-05-17T23:50:14.822Z,4.77
2023-05-17T23:52:43.685Z,5.53
2023-05-17T23:55:10.550Z,4.97
2023-05-17T23:57:37.984Z,3.23
